createdAt,value
2022-11-04T00:00:28.755Z,91.82
2022-11-04T00:01:25.426Z,90.08
2022-11-04T00:02:25.520Z,90.29
2022-11-04T00:03:25.391Z,89.78
2022-11-04T00:04:25.427Z,89.78
2022-11-04T00:05:25.373Z,89.78
2022-11-04T00:06:25.374Z,89.98
2022-11-04T00:07:25.366Z,90.59
2022-11-04T00:08:25.353Z,91.92
2022-11-04T00:09:25.329Z,91.52
2022-11-04T00:10:25.392Z,92.27
2022-11-04T00:11:25.310Z,91.66
2022-11-04T00:12:25.323Z,91.86
2022-11-04T00:13:25.305Z,92.68
2022-11-04T00:14:25.298Z,91.86
2022-11-04T00:15:25.264Z,92.99
2022-11-04T00:16:25.305Z,93.70
2022-11-04T00:17:25.245Z,92.27
2022-11-04T00:18:25.256Z,93.09
2022-11-04T00:19:25.227Z,93.09
2022-11-04T00:20:25.229Z,94.42
2022-11-04T00:21:25.202Z,94.01
2022-11-04T00:22:25.244Z,94.56
2022-11-04T00:23:25.203Z,93.95
2022-11-04T00:24:25.181Z,93.44
2022-11-04T00:25:25.164Z,93.03
2022-11-04T00:26:25.171Z,93.85
2022-11-04T00:27:25.138Z,90.47
2022-11-04T00:28:25.166Z,90.68
2022-11-04T00:29:25.137Z,90.27
2022-11-04T00:30:25.117Z,92.01
2022-11-04T00:31:25.098Z,92.21
2022-11-04T00:32:25.109Z,90.99
2022-11-04T00:33:25.078Z,90.06
2022-11-04T00:34:25.116Z,88.64
2022-11-04T00:35:25.051Z,89.50
2022-11-04T00:36:25.059Z,90.21
2022-11-04T00:37:25.036Z,90.72
2022-11-04T00:38:25.032Z,88.06
2022-11-04T00:39:25.038Z,88.88
2022-11-04T00:40:25.035Z,88.47
2022-11-04T00:41:24.989Z,89.50
2022-11-04T00:42:24.995Z,89.18
2022-11-04T00:43:24.965Z,87.85
2022-11-04T00:44:24.971Z,88.78
2022-11-04T00:45:24.943Z,90.11
2022-11-04T00:46:24.981Z,88.41
2022-11-04T00:47:24.922Z,88.20
2022-11-04T00:48:24.925Z,89.74
2022-11-04T00:49:24.906Z,90.15
2022-11-04T00:50:24.906Z,88.62
2022-11-04T00:51:24.885Z,88.92
2022-11-04T00:52:24.934Z,89.64
2022-11-04T00:53:24.855Z,89.43
2022-11-04T00:54:24.861Z,88.31
2022-11-04T00:55:24.840Z,87.90
2022-11-04T00:56:24.855Z,89.12
2022-11-04T00:57:24.816Z,89.12
2022-11-04T00:58:24.855Z,87.70
2022-11-04T00:59:24.796Z,87.70
2022-11-04T01:00:24.832Z,88.82
2022-11-04T01:01:24.955Z,87.59
2022-11-04T01:02:24.959Z,86.98
2022-11-04T01:03:24.750Z,87.18
2022-11-04T01:04:25.035Z,88.10
2022-11-04T01:05:24.729Z,88.71
2022-11-04T01:06:24.735Z,87.32
2022-11-04T01:07:24.733Z,87.84
2022-11-04T01:08:24.712Z,87.73
2022-11-04T01:09:24.686Z,89.37
2022-11-04T01:10:24.738Z,87.84
2022-11-04T01:11:24.664Z,88.14
2022-11-04T01:12:24.670Z,88.86
2022-11-04T01:13:24.673Z,89.58
2022-11-04T01:14:24.649Z,88.86
2022-11-04T01:15:24.623Z,88.86
2022-11-04T01:16:24.696Z,87.94
2022-11-04T01:17:24.607Z,88.04
2022-11-04T01:18:24.602Z,89.27
2022-11-04T01:19:24.586Z,88.35
2022-11-04T01:20:24.584Z,89.17
2022-11-04T01:21:24.559Z,88.49
2022-11-04T01:22:24.598Z,88.56
2022-11-04T01:23:24.536Z,89.62
2022-11-04T01:24:24.540Z,88.80
2022-11-04T01:25:24.523Z,89.51
2022-11-04T01:26:24.522Z,88.49
2022-11-04T01:27:24.503Z,88.39
2022-11-04T01:28:24.537Z,88.90
2022-11-04T01:29:24.478Z,89.42
2022-11-04T01:30:24.475Z,88.80
2022-11-04T01:31:24.466Z,88.70
2022-11-04T01:32:24.456Z,89.11
2022-11-04T01:33:24.439Z,88.49
2022-11-04T01:34:24.460Z,88.80
2022-11-04T01:35:24.424Z,89.11
2022-11-04T01:36:24.423Z,89.11
2022-11-04T01:37:24.387Z,90.13
2022-11-04T01:38:24.394Z,90.03
2022-11-04T01:39:24.389Z,89.21
2022-11-04T01:40:24.440Z,90.03
2022-11-04T01:41:24.344Z,88.90
2022-11-04T01:42:24.349Z,89.45
2022-11-04T01:43:24.334Z,89.66
2022-11-04T01:44:24.328Z,90.07
2022-11-04T01:45:24.302Z,90.89
2022-11-04T01:46:24.338Z,90.48
2022-11-04T01:47:24.293Z,90.28
2022-11-04T01:48:24.272Z,90.48
2022-11-04T01:49:24.311Z,90.07
2022-11-04T01:50:24.249Z,90.07
2022-11-04T01:51:24.251Z,90.79
2022-11-04T01:52:24.267Z,89.97
2022-11-04T01:53:24.238Z,90.17
2022-11-04T01:54:24.203Z,90.17
2022-11-04T01:55:24.208Z,89.97
2022-11-04T01:56:24.194Z,91.61
2022-11-04T01:57:24.191Z,89.25
2022-11-04T01:58:24.192Z,89.36
2022-11-04T01:59:24.173Z,90.17
2022-11-04T02:00:24.142Z,90.69
2022-11-04T02:01:24.355Z,89.36
2022-11-04T02:02:24.300Z,89.56
2022-11-04T02:03:24.125Z,90.48
2022-11-04T02:04:24.130Z,90.17
2022-11-04T02:05:24.110Z,90.42
2022-11-04T02:06:24.092Z,89.60
2022-11-04T02:07:24.080Z,90.83
2022-11-04T02:08:24.067Z,89.81
2022-11-04T02:09:24.061Z,89.90
2022-11-04T02:10:24.091Z,90.42
2022-11-04T02:11:24.039Z,90.22
2022-11-04T02:12:24.014Z,90.11
2022-11-04T02:13:24.036Z,90.52
2022-11-04T02:14:23.993Z,90.22
2022-11-04T02:15:23.991Z,89.70
2022-11-04T02:16:24.017Z,90.01
2022-11-04T02:17:23.975Z,88.88
2022-11-04T02:18:23.951Z,89.70
2022-11-04T02:19:23.972Z,89.70
2022-11-04T02:20:23.927Z,89.39
2022-11-04T02:21:23.935Z,89.19
2022-11-04T02:22:23.950Z,88.98
2022-11-04T02:23:23.913Z,90.11
2022-11-04T02:24:23.885Z,89.39
2022-11-04T02:25:23.885Z,90.01
2022-11-04T02:26:23.873Z,89.70
2022-11-04T02:27:23.866Z,89.90
2022-11-04T02:28:23.874Z,90.11
2022-11-04T02:29:23.856Z,90.01
2022-11-04T02:30:23.820Z,89.81
2022-11-04T02:31:23.829Z,89.50
2022-11-04T02:32:23.808Z,90.73
2022-11-04T02:33:23.803Z,89.81
2022-11-04T02:34:23.811Z,89.64
2022-11-04T02:35:23.798Z,90.36
2022-11-04T02:36:23.762Z,89.81
2022-11-04T02:37:23.760Z,89.81
2022-11-04T02:38:23.767Z,90.32
2022-11-04T02:39:23.737Z,90.22
2022-11-04T02:40:23.752Z,90.01
2022-11-04T02:41:23.743Z,90.42
2022-11-04T02:42:23.694Z,90.26
2022-11-04T02:43:23.694Z,89.75
2022-11-04T02:44:23.683Z,89.90
2022-11-04T02:45:23.675Z,90.52
2022-11-04T02:46:23.672Z,90.05
2022-11-04T02:47:23.668Z,90.05
2022-11-04T02:48:23.628Z,89.75
2022-11-04T02:49:23.628Z,89.54
2022-11-04T02:50:23.650Z,89.60
2022-11-04T02:51:23.611Z,89.50
2022-11-04T02:52:23.853Z,89.50
2022-11-04T02:53:23.602Z,89.70
2022-11-04T02:54:23.567Z,90.22
2022-11-04T02:55:23.566Z,89.50
2022-11-04T02:56:23.553Z,90.11
2022-11-04T02:57:23.551Z,89.54
2022-11-04T02:58:23.555Z,89.60
2022-11-04T02:59:23.523Z,90.32
2022-11-04T03:00:23.506Z,90.11
2022-11-04T03:01:23.645Z,89.29
2022-11-04T03:02:23.491Z,89.19
2022-11-04T03:03:23.492Z,89.60
2022-11-04T03:04:23.480Z,90.01
2022-11-04T03:05:23.457Z,88.98
2022-11-04T03:06:23.453Z,89.29
2022-11-04T03:07:23.438Z,88.98
2022-11-04T03:08:23.415Z,88.27
2022-11-04T03:09:23.429Z,88.33
2022-11-04T03:10:23.434Z,88.74
2022-11-04T03:11:23.395Z,88.53
2022-11-04T03:12:23.399Z,88.12
2022-11-04T03:13:23.382Z,88.53
2022-11-04T03:14:23.352Z,87.71
2022-11-04T03:15:23.352Z,88.74
2022-11-04T03:16:23.387Z,87.71
2022-11-04T03:17:23.344Z,88.23
2022-11-04T03:18:23.305Z,88.84
2022-11-04T03:19:23.320Z,89.66
2022-11-04T03:20:23.292Z,88.33
2022-11-04T03:21:23.291Z,87.41
2022-11-04T03:22:23.327Z,87.20
2022-11-04T03:23:23.270Z,87.41
2022-11-04T03:24:23.243Z,87.51
2022-11-04T03:25:23.246Z,87.82
2022-11-04T03:26:23.240Z,88.23
2022-11-04T03:27:23.222Z,88.12
2022-11-04T03:28:23.238Z,88.84
2022-11-04T03:29:23.212Z,88.37
2022-11-04T03:30:23.182Z,87.65
2022-11-04T03:31:23.183Z,87.82
2022-11-04T03:32:23.173Z,87.92
2022-11-04T03:33:23.161Z,88.84
2022-11-04T03:34:23.160Z,87.45
2022-11-04T03:35:23.172Z,88.12
2022-11-04T03:36:23.114Z,88.23
2022-11-04T03:37:23.127Z,87.30
2022-11-04T03:38:23.102Z,87.92
2022-11-04T03:39:23.105Z,88.33
2022-11-04T03:40:23.110Z,87.51
2022-11-04T03:41:23.115Z,88.53
2022-11-04T03:42:23.055Z,87.76
2022-11-04T03:43:23.055Z,87.41
2022-11-04T03:44:23.048Z,87.71
2022-11-04T03:45:23.032Z,88.02
2022-11-04T03:46:23.031Z,87.55
2022-11-04T03:47:23.030Z,88.27
2022-11-04T03:48:22.984Z,89.19
2022-11-04T03:49:22.989Z,89.09
2022-11-04T03:50:22.979Z,87.96
2022-11-04T03:51:22.965Z,88.37
2022-11-04T03:52:22.981Z,88.37
2022-11-04T03:53:23.085Z,88.47
2022-11-04T03:54:22.922Z,88.37
2022-11-04T03:55:22.927Z,89.39
2022-11-04T03:56:22.918Z,88.27
2022-11-04T03:57:22.904Z,88.37
2022-11-04T03:58:22.931Z,89.23
2022-11-04T03:59:22.918Z,88.72
2022-11-04T04:00:22.861Z,88.72
2022-11-04T04:01:22.934Z,88.72
2022-11-04T04:02:22.905Z,89.33
2022-11-04T04:03:22.846Z,89.43
2022-11-04T04:04:22.848Z,90.26
2022-11-04T04:05:22.823Z,89.54
2022-11-04T04:06:22.814Z,89.43
2022-11-04T04:07:22.796Z,90.09
2022-11-04T04:08:22.772Z,89.58
2022-11-04T04:09:22.796Z,89.27
2022-11-04T04:10:22.786Z,89.37
2022-11-04T04:11:22.756Z,89.78
2022-11-04T04:12:22.758Z,90.20
2022-11-04T04:13:22.734Z,89.78
2022-11-04T04:14:22.708Z,89.78
2022-11-04T04:15:22.728Z,90.09
2022-11-04T04:16:24.748Z,90.61
2022-11-04T04:17:22.693Z,89.78
2022-11-04T04:18:22.664Z,90.20
2022-11-04T04:19:22.681Z,89.58
2022-11-04T04:20:22.646Z,90.30
2022-11-04T04:21:22.649Z,89.48
2022-11-04T04:22:22.670Z,89.58
2022-11-04T04:23:22.626Z,89.58
2022-11-04T04:24:22.604Z,89.17
2022-11-04T04:25:22.620Z,89.69
2022-11-04T04:26:22.582Z,90.20
2022-11-04T04:27:22.585Z,89.89
2022-11-04T04:28:22.602Z,89.37
2022-11-04T04:29:22.563Z,89.27
2022-11-04T04:30:22.538Z,89.89
2022-11-04T04:31:22.579Z,89.07
2022-11-04T04:32:22.522Z,89.07
2022-11-04T04:33:22.522Z,90.30
2022-11-04T04:34:22.538Z,90.81
2022-11-04T04:35:22.510Z,91.12
2022-11-04T04:36:22.475Z,90.61
2022-11-04T04:37:22.478Z,89.27
2022-11-04T04:38:22.465Z,90.30
2022-11-04T04:39:22.456Z,90.71
2022-11-04T04:40:25.111Z,91.22
2022-11-04T04:41:22.442Z,90.20
2022-11-04T04:42:22.411Z,89.48
2022-11-04T04:43:22.416Z,89.37
2022-11-04T04:44:22.400Z,90.30
2022-11-04T04:45:22.412Z,90.97
2022-11-04T04:46:22.367Z,90.20
2022-11-04T04:47:22.378Z,88.76
2022-11-04T04:48:22.346Z,89.17
2022-11-04T04:49:22.350Z,89.37
2022-11-04T04:50:22.335Z,89.27
2022-11-04T04:51:22.361Z,88.56
2022-11-04T04:52:22.308Z,89.99
2022-11-04T04:53:22.316Z,89.37
2022-11-04T04:54:22.283Z,89.69
2022-11-04T04:55:22.284Z,89.78
2022-11-04T04:56:22.303Z,89.48
2022-11-04T04:57:22.302Z,90.40
2022-11-04T04:58:22.243Z,89.58
2022-11-04T04:59:22.267Z,88.86
2022-11-04T05:00:22.217Z,88.96
2022-11-04T05:01:22.300Z,89.27
2022-11-04T05:02:22.386Z,90.81
2022-11-04T05:03:22.198Z,88.96
2022-11-04T05:04:22.178Z,89.37
2022-11-04T05:05:22.194Z,90.40
2022-11-04T05:06:22.156Z,88.66
2022-11-04T05:07:22.401Z,88.45
2022-11-04T05:08:22.145Z,88.76
2022-11-04T05:09:22.136Z,89.27
2022-11-04T05:10:22.110Z,89.27
2022-11-04T05:11:24.568Z,88.24
2022-11-04T05:12:22.108Z,89.07
2022-11-04T05:13:22.119Z,88.66
2022-11-04T05:14:22.083Z,88.76
2022-11-04T05:15:22.070Z,89.27
2022-11-04T05:16:22.046Z,88.76
2022-11-04T05:17:22.067Z,89.58
2022-11-04T05:18:22.050Z,89.17
2022-11-04T05:19:22.028Z,89.37
2022-11-04T05:20:22.039Z,88.76
2022-11-04T05:21:22.008Z,89.89
2022-11-04T05:22:21.982Z,89.99
2022-11-04T05:23:21.984Z,88.45
2022-11-04T05:24:21.995Z,88.66
2022-11-04T05:25:21.970Z,89.99
2022-11-04T05:26:21.943Z,90.71
2022-11-04T05:27:21.958Z,90.50
2022-11-04T05:28:21.918Z,91.63
2022-11-04T05:29:21.959Z,92.25
2022-11-04T05:30:21.908Z,90.50
2022-11-04T05:31:21.905Z,88.56
2022-11-04T05:32:21.880Z,89.48
2022-11-04T05:33:21.891Z,92.25
2022-11-04T05:34:21.854Z,92.76
2022-11-04T05:35:21.881Z,92.76
2022-11-04T05:36:21.845Z,92.97
2022-11-04T05:37:21.838Z,93.89
2022-11-04T05:38:21.820Z,91.94
2022-11-04T05:39:21.827Z,90.91
2022-11-04T05:40:21.846Z,92.46
2022-11-04T05:41:21.795Z,91.53
2022-11-04T05:42:21.778Z,91.42
2022-11-04T05:43:21.774Z,91.02
2022-11-04T05:44:21.760Z,90.30
2022-11-04T05:45:21.752Z,89.58
2022-11-04T05:46:21.764Z,89.99
2022-11-04T05:47:21.742Z,90.09
2022-11-04T05:48:21.713Z,90.50
2022-11-04T05:49:21.716Z,88.96
2022-11-04T05:50:21.692Z,90.20
2022-11-04T05:51:21.692Z,90.20
2022-11-04T05:52:21.698Z,88.56
2022-11-04T05:53:21.721Z,89.48
2022-11-04T05:54:21.650Z,88.66
2022-11-04T05:55:21.658Z,89.89
2022-11-04T05:56:21.623Z,88.14
2022-11-04T05:57:21.633Z,88.35
2022-11-04T05:58:21.620Z,89.95
2022-11-04T05:59:21.607Z,90.16
2022-11-04T06:00:21.583Z,88.92
2022-11-04T06:01:21.746Z,88.92
2022-11-04T06:02:21.845Z,87.38
2022-11-04T06:03:21.648Z,87.28
2022-11-04T06:04:21.577Z,86.87
2022-11-04T06:05:21.531Z,86.57
2022-11-04T06:06:21.535Z,88.82
2022-11-04T06:07:21.506Z,89.64
2022-11-04T06:08:21.511Z,86.66
2022-11-04T06:09:21.511Z,88.21
2022-11-04T06:10:21.506Z,86.57
2022-11-04T06:11:21.464Z,87.08
2022-11-04T06:12:21.467Z,87.28
2022-11-04T06:13:21.443Z,87.08
2022-11-04T06:14:21.476Z,85.85
2022-11-04T06:15:21.421Z,86.25
2022-11-04T06:16:21.432Z,86.87
2022-11-04T06:17:21.402Z,87.59
2022-11-04T06:18:21.414Z,86.77
2022-11-04T06:19:21.386Z,86.87
2022-11-04T06:20:21.411Z,86.87
2022-11-04T06:21:21.354Z,86.05
2022-11-04T06:22:21.368Z,86.46
2022-11-04T06:23:21.340Z,86.66
2022-11-04T06:24:21.339Z,86.98
2022-11-04T06:25:21.347Z,86.57
2022-11-04T06:26:25.276Z,86.57
2022-11-04T06:27:21.298Z,86.98
2022-11-04T06:28:21.293Z,86.25
2022-11-04T06:29:21.271Z,87.59
2022-11-04T06:30:21.291Z,88.10
2022-11-04T06:31:21.268Z,87.90
2022-11-04T06:32:21.260Z,89.64
2022-11-04T06:33:21.280Z,91.08
2022-11-04T06:34:21.232Z,91.69
2022-11-04T06:35:21.211Z,91.28
2022-11-04T06:36:21.252Z,92.51
2022-11-04T06:37:21.182Z,93.54
2022-11-04T06:38:21.193Z,93.02
2022-11-04T06:39:21.177Z,92.31
2022-11-04T06:40:21.165Z,91.08
2022-11-04T06:41:21.144Z,91.49
2022-11-04T06:42:21.166Z,91.28
2022-11-04T06:43:21.118Z,91.59
2022-11-04T06:44:21.123Z,91.80
2022-11-04T06:45:21.112Z,89.43
2022-11-04T06:46:21.101Z,90.36
2022-11-04T06:47:24.745Z,91.08
2022-11-04T06:48:21.086Z,89.75
2022-11-04T06:49:21.070Z,91.08
2022-11-04T06:50:21.062Z,90.97
2022-11-04T06:51:21.034Z,90.36
2022-11-04T06:52:21.039Z,89.75
2022-11-04T06:53:21.046Z,89.23
2022-11-04T06:54:21.017Z,90.67
2022-11-04T06:55:21.001Z,89.75
2022-11-04T06:56:21.004Z,90.05
2022-11-04T06:57:20.974Z,87.90
2022-11-04T06:58:21.013Z,90.36
2022-11-04T06:59:20.952Z,89.84
2022-11-04T07:00:20.956Z,88.51
2022-11-04T07:01:22.332Z,88.56
2022-11-04T07:02:21.084Z,89.75
2022-11-04T07:03:20.911Z,91.53
2022-11-04T07:04:20.932Z,93.07
2022-11-04T07:05:20.911Z,92.25
2022-11-04T07:06:20.892Z,93.68
2022-11-04T07:07:20.883Z,93.07
2022-11-04T07:08:20.869Z,92.66
2022-11-04T07:09:20.875Z,92.86
2022-11-04T07:10:20.848Z,92.97
2022-11-04T07:11:20.858Z,92.55
2022-11-04T07:12:20.832Z,92.35
2022-11-04T07:13:20.814Z,93.48
2022-11-04T07:14:20.815Z,93.79
2022-11-04T07:15:26.235Z,93.38
2022-11-04T07:16:20.795Z,93.17
2022-11-04T07:17:20.762Z,93.68
2022-11-04T07:18:20.764Z,92.97
2022-11-04T07:19:20.753Z,94.10
2022-11-04T07:20:20.792Z,93.79
2022-11-04T07:21:20.718Z,92.25
2022-11-04T07:22:20.720Z,91.53
2022-11-04T07:23:20.698Z,91.94
2022-11-04T07:24:20.703Z,93.59
2022-11-04T07:25:20.690Z,93.07
2022-11-04T07:26:20.712Z,93.38
2022-11-04T07:27:20.658Z,93.68
2022-11-04T07:28:20.684Z,92.82
2022-11-04T07:29:20.629Z,93.13
2022-11-04T07:30:20.636Z,92.61
2022-11-04T07:31:20.609Z,92.82
2022-11-04T07:32:20.647Z,92.31
2022-11-04T07:33:20.589Z,92.51
2022-11-04T07:34:20.593Z,91.59
2022-11-04T07:35:20.568Z,91.90
2022-11-04T07:36:20.583Z,92.82
2022-11-04T07:37:20.547Z,93.44
2022-11-04T07:38:20.575Z,94.05
2022-11-04T07:39:20.526Z,94.46
2022-11-04T07:40:20.527Z,94.15
2022-11-04T07:41:20.505Z,92.41
2022-11-04T07:42:20.510Z,92.21
2022-11-04T07:43:20.481Z,92.31
2022-11-04T07:44:20.524Z,92.51
2022-11-04T07:45:20.464Z,92.82
2022-11-04T07:46:20.470Z,92.27
2022-11-04T07:47:20.439Z,91.03
2022-11-04T07:48:20.443Z,86.77
2022-11-04T07:49:20.417Z,88.88
2022-11-04T07:50:20.494Z,89.19
2022-11-04T07:51:20.399Z,86.52
2022-11-04T07:52:20.405Z,88.78
2022-11-04T07:53:20.377Z,86.83
2022-11-04T07:54:20.379Z,88.17
2022-11-04T07:55:20.362Z,87.10
2022-11-04T07:56:20.390Z,88.02
2022-11-04T07:57:20.343Z,85.30
2022-11-04T07:58:20.350Z,88.02
2022-11-04T07:59:20.310Z,88.12
2022-11-04T08:00:20.310Z,88.84
2022-11-04T08:01:20.330Z,86.58
2022-11-04T08:02:25.281Z,86.58
2022-11-04T08:03:20.382Z,86.79
2022-11-04T08:04:20.274Z,84.95
2022-11-04T08:05:20.251Z,85.77
2022-11-04T08:06:20.247Z,87.41
2022-11-04T08:07:20.228Z,87.51
2022-11-04T08:08:20.260Z,86.58
2022-11-04T08:09:20.255Z,84.95
2022-11-04T08:10:20.212Z,85.05
2022-11-04T08:11:20.182Z,84.53
2022-11-04T08:12:20.186Z,84.70
2022-11-04T08:13:20.161Z,85.46
2022-11-04T08:14:20.195Z,84.80
2022-11-04T08:15:20.146Z,84.39
2022-11-04T08:16:20.152Z,84.70
2022-11-04T08:17:20.123Z,84.91
2022-11-04T08:18:20.124Z,85.63
2022-11-04T08:19:20.099Z,84.97
2022-11-04T08:20:20.126Z,84.77
2022-11-04T08:21:20.074Z,83.54
2022-11-04T08:22:20.079Z,83.95
2022-11-04T08:23:20.061Z,82.98
2022-11-04T08:24:20.069Z,84.42
2022-11-04T08:25:20.031Z,83.29
2022-11-04T08:26:20.071Z,84.01
2022-11-04T08:27:20.013Z,83.19
2022-11-04T08:28:20.017Z,82.07
2022-11-04T08:29:20.013Z,81.04
2022-11-04T08:30:19.991Z,83.29
2022-11-04T08:31:19.968Z,82.57
2022-11-04T08:32:20.006Z,82.98
2022-11-04T08:33:19.960Z,84.01
2022-11-04T08:34:19.957Z,82.23
2022-11-04T08:35:19.938Z,83.76
2022-11-04T08:36:19.928Z,84.38
2022-11-04T08:37:19.904Z,83.87
2022-11-04T08:38:19.939Z,82.34
2022-11-04T08:39:19.887Z,80.69
2022-11-04T08:40:19.903Z,81.31
2022-11-04T08:41:19.889Z,82.95
2022-11-04T08:42:19.867Z,84.48
2022-11-04T08:43:19.837Z,83.66
2022-11-04T08:44:19.869Z,82.70
2022-11-04T08:45:19.816Z,80.15
2022-11-04T08:46:19.839Z,80.46
2022-11-04T08:47:19.803Z,82.40
2022-11-04T08:48:19.813Z,83.01
2022-11-04T08:49:21.588Z,84.44
2022-11-04T08:50:19.783Z,84.14
2022-11-04T08:51:19.759Z,81.99
2022-11-04T08:52:19.754Z,80.08
2022-11-04T08:53:19.735Z,81.51
2022-11-04T08:54:19.734Z,80.39
2022-11-04T08:55:19.732Z,81.01
2022-11-04T08:56:19.726Z,80.90
2022-11-04T08:57:19.692Z,79.78
2022-11-04T08:58:19.692Z,78.75
2022-11-04T08:59:19.681Z,79.78
2022-11-04T09:00:19.710Z,80.29
2022-11-04T09:01:19.685Z,81.45
2022-11-04T09:02:19.648Z,81.96
2022-11-04T09:03:19.667Z,80.83
2022-11-04T09:04:19.643Z,80.02
2022-11-04T09:05:19.600Z,80.74
2022-11-04T09:06:19.625Z,81.56
2022-11-04T09:07:19.582Z,80.94
2022-11-04T09:08:19.596Z,81.24
2022-11-04T09:09:19.557Z,81.15
2022-11-04T09:10:19.562Z,81.35
2022-11-04T09:11:19.581Z,81.86
2022-11-04T09:12:19.542Z,79.82
2022-11-04T09:13:19.516Z,80.39
2022-11-04T09:14:19.518Z,82.78
2022-11-04T09:15:19.492Z,80.80
2022-11-04T09:16:19.499Z,80.49
2022-11-04T09:17:19.505Z,79.61
2022-11-04T09:18:19.482Z,80.29
2022-11-04T09:19:19.468Z,80.60
2022-11-04T09:20:19.465Z,79.27
2022-11-04T09:21:19.436Z,79.47
2022-11-04T09:22:19.468Z,79.68
2022-11-04T09:23:19.422Z,79.37
2022-11-04T09:24:19.421Z,79.06
2022-11-04T09:25:19.388Z,79.16
2022-11-04T09:26:19.389Z,79.84
2022-11-04T09:27:19.367Z,79.64
2022-11-04T09:28:19.391Z,78.78
2022-11-04T09:29:19.345Z,78.92
2022-11-04T09:30:19.348Z,78.58
2022-11-04T09:31:19.325Z,77.97
2022-11-04T09:32:19.330Z,78.07
2022-11-04T09:33:19.325Z,78.38
2022-11-04T09:34:19.304Z,77.76
2022-11-04T09:35:19.292Z,77.62
2022-11-04T09:36:19.282Z,78.95
2022-11-04T09:37:19.264Z,77.28
2022-11-04T09:38:19.259Z,78.61
2022-11-04T09:39:19.257Z,77.08
2022-11-04T09:40:19.244Z,79.69
2022-11-04T09:41:19.220Z,79.08
2022-11-04T09:42:19.224Z,78.16
2022-11-04T09:43:19.195Z,77.41
2022-11-04T09:44:19.230Z,75.27
2022-11-04T09:45:22.057Z,76.80
2022-11-04T09:46:19.173Z,75.16
2022-11-04T09:47:21.770Z,75.74
2022-11-04T09:48:19.155Z,73.40
2022-11-04T09:49:19.138Z,72.58
2022-11-04T09:50:19.154Z,74.52
2022-11-04T09:51:39.871Z,72.75
2022-11-04T09:52:19.157Z,72.14
2022-11-04T09:53:19.101Z,71.36
2022-11-04T09:54:19.093Z,73.47
2022-11-04T09:55:19.101Z,74.79
2022-11-04T09:56:19.076Z,71.12
2022-11-04T09:57:19.049Z,73.16
2022-11-04T09:58:19.156Z,71.63
2022-11-04T09:59:19.047Z,72.62
2022-11-04T10:00:19.132Z,72.01
2022-11-04T10:01:19.347Z,73.13
2022-11-04T10:02:22.066Z,74.76
2022-11-04T10:03:18.976Z,70.99
2022-11-04T10:04:18.984Z,70.78
2022-11-04T10:05:18.961Z,74.45
2022-11-04T10:06:18.961Z,70.07
2022-11-04T10:07:18.979Z,72.01
2022-11-04T10:08:18.937Z,70.00
2022-11-04T10:09:18.913Z,71.63
2022-11-04T10:10:18.921Z,71.33
2022-11-04T10:11:18.896Z,70.38
2022-11-04T10:12:18.896Z,71.39
2022-11-04T10:13:18.916Z,70.89
2022-11-04T10:14:18.872Z,73.33
2022-11-04T10:15:18.851Z,73.02
2022-11-04T10:16:18.870Z,70.24
2022-11-04T10:17:18.832Z,72.99
2022-11-04T10:18:18.824Z,71.87
2022-11-04T10:19:18.855Z,69.93
2022-11-04T10:20:18.796Z,70.75
2022-11-04T10:21:18.801Z,71.73
2022-11-04T10:22:18.776Z,70.62
2022-11-04T10:23:18.787Z,69.49
2022-11-04T10:24:18.762Z,68.48
2022-11-04T10:25:18.794Z,67.97
2022-11-04T10:26:18.730Z,69.57
2022-11-04T10:27:18.736Z,69.80
2022-11-04T10:28:18.710Z,68.24
2022-11-04T10:29:18.713Z,68.28
2022-11-04T10:30:18.691Z,66.63
2022-11-04T10:31:18.968Z,65.30
2022-11-04T10:32:22.352Z,67.91
2022-11-04T10:33:18.672Z,63.55
2022-11-04T10:34:18.649Z,63.48
2022-11-04T10:35:18.649Z,64.39
2022-11-04T10:36:18.632Z,64.46
2022-11-04T10:37:18.674Z,64.53
2022-11-04T10:38:18.601Z,65.45
2022-11-04T10:39:18.609Z,61.20
2022-11-04T10:40:18.583Z,63.09
2022-11-04T10:41:18.581Z,60.36
2022-11-04T10:42:18.561Z,61.23
2022-11-04T10:43:18.585Z,65.04
2022-11-04T10:44:18.547Z,65.99
2022-11-04T10:45:18.540Z,64.62
2022-11-04T10:46:18.517Z,64.48
2022-11-04T10:47:18.518Z,65.83
2022-11-04T10:48:18.503Z,67.29
2022-11-04T10:49:18.523Z,67.93
2022-11-04T10:50:33.864Z,68.37
2022-11-04T10:51:18.484Z,68.88
2022-11-04T10:52:22.965Z,69.46
2022-11-04T10:53:18.459Z,66.46
2022-11-04T10:54:18.428Z,62.40
2022-11-04T10:55:18.476Z,62.65
2022-11-04T10:56:18.485Z,63.47
2022-11-04T10:57:18.427Z,58.61
2022-11-04T10:58:18.394Z,60.43
2022-11-04T10:59:20.514Z,60.43
2022-11-04T11:00:18.431Z,59.47
2022-11-04T11:01:18.538Z,57.59
2022-11-04T11:02:18.412Z,59.11
2022-11-04T11:03:18.353Z,58.15
2022-11-04T11:04:18.319Z,59.05
2022-11-04T11:05:18.327Z,60.78
2022-11-04T11:06:18.298Z,62.53
2022-11-04T11:07:18.337Z,65.10
2022-11-04T11:08:18.282Z,62.81
2022-11-04T11:09:18.280Z,61.00
2022-11-04T11:10:18.253Z,59.25
2022-11-04T11:11:18.262Z,59.10
2022-11-04T11:12:49.379Z,59.63
2022-11-04T11:13:18.291Z,60.63
2022-11-04T11:14:18.233Z,62.45
2022-11-04T11:15:18.226Z,64.51
2022-11-04T11:16:18.190Z,65.25
2022-11-04T11:17:18.203Z,66.61
2022-11-04T11:18:18.170Z,67.32
2022-11-04T11:19:18.204Z,67.22
2022-11-04T11:20:18.150Z,66.94
2022-11-04T11:21:18.160Z,68.10
2022-11-04T11:22:18.125Z,68.20
2022-11-04T11:23:18.134Z,68.91
2022-11-04T11:24:18.110Z,69.32
2022-11-04T11:25:18.129Z,69.83
2022-11-04T11:26:18.091Z,69.63
2022-11-04T11:27:18.087Z,69.93
2022-11-04T11:28:18.064Z,70.44
2022-11-04T11:29:18.067Z,70.44
2022-11-04T11:30:18.046Z,69.96
2022-11-04T11:31:18.082Z,70.17
2022-11-04T11:32:18.017Z,70.37
2022-11-04T11:33:18.051Z,70.57
2022-11-04T11:34:17.996Z,71.39
2022-11-04T11:35:17.997Z,71.80
2022-11-04T11:36:17.975Z,70.98
2022-11-04T11:37:18.003Z,70.98
2022-11-04T11:38:17.949Z,71.53
2022-11-04T11:39:17.954Z,71.63
2022-11-04T11:40:17.928Z,73.47
2022-11-04T11:41:25.025Z,71.94
2022-11-04T11:42:17.914Z,71.43
2022-11-04T11:43:17.969Z,71.53
2022-11-04T11:44:17.890Z,71.53
2022-11-04T11:45:17.893Z,72.14
2022-11-04T11:46:17.876Z,71.94
2022-11-04T11:47:17.868Z,73.77
2022-11-04T11:48:17.856Z,72.24
2022-11-04T11:49:17.870Z,72.04
2022-11-04T11:50:17.823Z,72.04
2022-11-04T11:51:21.846Z,71.84
2022-11-04T11:52:17.822Z,72.34
2022-11-04T11:53:17.814Z,71.91
2022-11-04T11:54:17.784Z,71.60
2022-11-04T11:55:17.818Z,71.91
2022-11-04T11:56:17.761Z,72.00
2022-11-04T11:57:24.007Z,73.64
2022-11-04T12:01:23.915Z,73.84
2022-11-04T12:02:18.291Z,72.21
2022-11-04T12:03:18.677Z,71.29
2022-11-04T12:06:18.332Z,71.60
2022-11-04T12:09:19.182Z,71.70
2022-11-04T12:10:24.069Z,71.46
2022-11-04T12:11:17.615Z,71.50
2022-11-04T12:12:17.591Z,71.56
2022-11-04T12:13:23.657Z,71.67
2022-11-04T12:14:17.575Z,72.58
2022-11-04T12:15:17.564Z,71.39
2022-11-04T12:16:17.541Z,72.11
2022-11-04T12:17:17.546Z,72.52
2022-11-04T12:18:17.519Z,72.11
2022-11-04T12:19:17.668Z,72.31
2022-11-04T12:20:17.563Z,72.52
2022-11-04T12:21:17.505Z,72.52
2022-11-04T12:22:17.479Z,72.72
2022-11-04T12:23:17.480Z,72.62
2022-11-04T12:24:17.458Z,72.72
2022-11-04T12:25:17.500Z,73.03
2022-11-04T12:26:17.441Z,73.33
2022-11-04T12:27:17.437Z,73.33
2022-11-04T12:28:17.412Z,73.23
2022-11-04T12:29:17.418Z,73.43
2022-11-04T12:30:17.396Z,74.66
2022-11-04T12:31:17.431Z,75.07
2022-11-04T12:32:17.376Z,73.23
2022-11-04T12:33:17.376Z,72.92
2022-11-04T12:34:17.371Z,73.54
2022-11-04T12:35:17.357Z,72.92
2022-11-04T12:36:17.327Z,73.13
2022-11-04T12:37:17.365Z,73.33
2022-11-04T12:38:17.310Z,73.03
2022-11-04T12:39:17.374Z,73.64
2022-11-04T12:40:17.290Z,72.11
2022-11-04T12:41:37.919Z,72.92
2022-11-04T12:42:22.224Z,73.13
2022-11-04T12:43:17.304Z,72.41
2022-11-04T12:44:17.244Z,71.80
2022-11-04T12:45:17.255Z,71.60
2022-11-04T12:46:17.224Z,72.11
2022-11-04T12:47:17.226Z,72.82
2022-11-04T12:48:17.199Z,71.80
2022-11-04T12:49:17.245Z,71.19
2022-11-04T12:50:17.231Z,71.19
2022-11-04T12:51:17.200Z,70.98
2022-11-04T12:52:17.156Z,71.60
2022-11-04T12:53:17.156Z,71.50
2022-11-04T12:54:17.140Z,70.27
2022-11-04T12:55:17.183Z,71.29
2022-11-04T12:56:17.155Z,70.37
2022-11-04T12:57:17.112Z,69.56
2022-11-04T12:58:17.100Z,70.37
2022-11-04T12:59:17.099Z,69.96